createdAt,value
2023-02-28T00:01:14.772Z,61.28
2023-02-28T00:03:16.270Z,56.95
2023-02-28T00:05:20.915Z,62.63
2023-02-28T00:07:22.307Z,64.03
2023-02-28T00:09:23.729Z,62.85
2023-02-28T00:11:25.537Z,58.75
2023-02-28T00:13:26.941Z,60.83
2023-02-28T00:15:28.545Z,54.22
2023-02-28T00:17:30.312Z,59.67
2023-02-28T00:19:31.752Z,56.35
2023-02-28T00:21:33.181Z,58.05
2023-02-28T00:23:35.533Z,54.03
2023-02-28T00:25:36.916Z,65.93
2023-02-28T00:27:39.670Z,60.53
2023-02-28T00:29:41.433Z,69.68
2023-02-28T00:31:42.824Z,66.88
2023-02-28T00:33:44.228Z,72.95
2023-02-28T00:35:49.543Z,72.50
2023-02-28T00:37:51.028Z,59.33
2023-02-28T00:39:52.462Z,59.25
2023-02-28T00:41:54.167Z,62.67
2023-02-28T00:43:55.556Z,68.80
2023-02-28T00:45:57.149Z,62.47
2023-02-28T00:47:59.097Z,61.95
2023-02-28T00:50:01.206Z,68.25
2023-02-28T00:52:02.849Z,56.85
2023-02-28T00:54:04.455Z,63.25
2023-02-28T00:56:06.164Z,67.20
2023-02-28T00:58:07.836Z,62.35
2023-02-28T01:00:09.964Z,67.57
2023-02-28T01:02:11.375Z,73.88
2023-02-28T01:04:13.775Z,66.78
2023-02-28T01:06:15.449Z,69.13
2023-02-28T01:08:16.903Z,76.75
2023-02-28T01:10:18.627Z,76.05
2023-02-28T01:12:20.149Z,77.28
2023-02-28T01:14:21.595Z,75.43
2023-02-28T01:16:23.623Z,75.97
2023-02-28T01:18:25.696Z,72.88
2023-02-28T01:20:27.162Z,71.90
2023-02-28T01:22:28.670Z,64.75
2023-02-28T01:24:30.174Z,67.50
2023-02-28T01:26:32.194Z,71.97
2023-02-28T01:28:33.736Z,73.50
2023-02-28T01:30:36.039Z,68.70
2023-02-28T01:32:37.903Z,69.25
2023-02-28T01:34:39.500Z,69.57
2023-02-28T01:36:41.170Z,67.80
2023-02-28T01:38:43.029Z,66.68
2023-02-28T01:40:44.447Z,71.13
2023-02-28T01:42:45.956Z,65.95
2023-02-28T01:45:14.293Z,66.47
2023-02-28T01:47:16.107Z,65.03
2023-02-28T01:49:19.788Z,67.88
2023-02-28T01:51:25.633Z,62.60
2023-02-28T01:53:48.671Z,62.60
2023-02-28T01:55:53.401Z,64.75
2023-02-28T01:57:57.866Z,71.05
2023-02-28T02:00:02.958Z,75.60
2023-02-28T02:02:05.096Z,141.23
2023-02-28T02:04:06.641Z,79.25
2023-02-28T02:06:08.137Z,63.00
2023-02-28T02:08:13.934Z,56.97
2023-02-28T02:10:18.434Z,64.90
2023-02-28T02:12:38.619Z,63.17
2023-02-28T02:14:53.864Z,59.70
2023-02-28T02:17:11.386Z,110.32
2023-02-28T02:19:20.834Z,145.25
2023-02-28T02:21:47.554Z,52.45
2023-02-28T02:24:23.153Z,97.28
2023-02-28T02:26:36.680Z,70.82
2023-02-28T02:29:17.631Z,94.60
2023-02-28T02:31:24.581Z,51.55
2023-02-28T02:33:50.374Z,45.58
2023-02-28T02:36:14.620Z,46.58
2023-02-28T02:38:19.013Z,52.05
2023-02-28T02:40:28.612Z,50.95
2023-02-28T02:42:54.056Z,45.83
2023-02-28T02:45:02.341Z,49.58
2023-02-28T02:47:13.910Z,49.03
2023-02-28T02:49:30.812Z,43.47
2023-02-28T02:51:34.378Z,74.30
2023-02-28T02:53:42.289Z,51.17
2023-02-28T02:55:48.545Z,50.63
2023-02-28T02:57:54.882Z,52.15
2023-02-28T02:59:58.333Z,52.80
2023-02-28T03:04:11.619Z,44.72
2023-02-28T03:06:13.174Z,70.55
2023-02-28T03:08:16.311Z,71.93
2023-02-28T03:10:33.041Z,105.60
2023-02-28T03:12:47.504Z,80.30
2023-02-28T03:15:19.177Z,142.20
2023-02-28T03:18:02.177Z,125.15
2023-02-28T03:20:15.358Z,106.80
2023-02-28T03:22:38.452Z,58.75
2023-02-28T03:25:18.923Z,69.40
2023-02-28T03:27:29.848Z,54.97
2023-02-28T03:29:45.286Z,54.45
2023-02-28T03:31:54.469Z,62.92
2023-02-28T03:34:05.803Z,54.13
2023-02-28T03:36:31.253Z,71.53
2023-02-28T03:38:45.422Z,72.78
2023-02-28T03:40:52.013Z,80.43
2023-02-28T03:42:59.949Z,97.15
2023-02-28T03:45:06.208Z,96.85
2023-02-28T03:47:12.309Z,89.25
2023-02-28T03:49:19.879Z,76.18
2023-02-28T03:51:25.413Z,71.80
2023-02-28T03:53:32.904Z,73.70
2023-02-28T03:55:41.936Z,71.35
2023-02-28T03:57:54.305Z,66.80
2023-02-28T04:00:00.823Z,68.20
2023-02-28T04:02:02.686Z,71.30
2023-02-28T04:04:05.075Z,72.93
2023-02-28T04:06:17.817Z,65.57
2023-02-28T04:08:19.349Z,68.05
2023-02-28T04:10:21.188Z,70.32
2023-02-28T04:12:22.584Z,68.85
2023-02-28T04:14:24.602Z,70.38
2023-02-28T04:16:35.015Z,58.63
2023-02-28T04:18:36.971Z,59.67
2023-02-28T04:20:38.556Z,70.85
2023-02-28T04:22:40.202Z,62.60
2023-02-28T04:24:41.612Z,69.85
2023-02-28T04:26:48.240Z,68.70
2023-02-28T04:28:49.810Z,69.88
2023-02-28T04:30:59.236Z,79.82
2023-02-28T04:33:02.131Z,71.53
2023-02-28T04:35:03.787Z,62.90
2023-02-28T04:37:13.314Z,70.82
2023-02-28T04:39:16.564Z,68.68
2023-02-28T04:41:18.150Z,77.32
2023-02-28T04:43:19.588Z,79.60
2023-02-28T04:45:21.175Z,69.07
2023-02-28T04:47:22.577Z,75.65
2023-02-28T04:49:24.005Z,207.13
2023-02-28T04:51:25.435Z,71.55
2023-02-28T04:53:26.865Z,259.90
2023-02-28T04:55:28.262Z,137.55
2023-02-28T04:57:29.642Z,188.10
2023-02-28T04:59:31.067Z,352.95
2023-02-28T05:01:34.552Z,268.05
2023-02-28T05:05:37.383Z,86.45
2023-02-28T05:07:38.784Z,79.47
2023-02-28T05:09:40.259Z,89.10
2023-02-28T05:11:41.953Z,106.75
2023-02-28T05:13:43.372Z,84.90
2023-02-28T05:15:44.774Z,82.57
2023-02-28T05:17:46.334Z,85.70
2023-02-28T05:19:47.742Z,146.75
2023-02-28T05:21:53.084Z,227.07
2023-02-28T05:23:55.608Z,123.63
2023-02-28T05:25:57.538Z,91.83
2023-02-28T05:27:58.975Z,86.15
2023-02-28T05:30:00.456Z,90.30
2023-02-28T05:32:01.946Z,77.00
2023-02-28T05:34:03.640Z,71.53
2023-02-28T05:36:05.490Z,121.57
2023-02-28T05:38:08.179Z,200.95
2023-02-28T05:40:10.130Z,144.50
2023-02-28T05:42:11.545Z,153.18
2023-02-28T05:44:13.126Z,230.73
2023-02-28T05:46:15.137Z,226.80
2023-02-28T05:48:16.530Z,103.03
2023-02-28T05:50:18.076Z,96.15
2023-02-28T05:52:19.708Z,95.00
2023-02-28T05:54:21.127Z,123.82
2023-02-28T05:56:22.528Z,153.38
2023-02-28T05:58:24.211Z,133.68
2023-02-28T06:00:25.687Z,249.93
2023-02-28T06:02:27.121Z,129.68
2023-02-28T06:04:32.092Z,134.20
2023-02-28T06:06:36.629Z,174.98
2023-02-28T06:08:38.532Z,180.38
2023-02-28T06:10:40.040Z,227.10
2023-02-28T06:12:41.629Z,164.95
2023-02-28T06:14:43.034Z,157.27
2023-02-28T06:16:44.783Z,160.35
2023-02-28T06:18:46.354Z,153.80
2023-02-28T06:20:54.348Z,106.10
2023-02-28T06:22:59.307Z,132.80
2023-02-28T06:25:00.797Z,135.90
2023-02-28T06:27:02.241Z,125.35
2023-02-28T06:29:03.819Z,117.18
2023-02-28T06:31:14.065Z,112.05
2023-02-28T06:33:15.514Z,103.13
2023-02-28T06:35:17.189Z,111.90
2023-02-28T06:37:19.456Z,84.80
2023-02-28T06:39:21.083Z,97.85
2023-02-28T06:41:27.105Z,135.52
2023-02-28T06:43:31.536Z,126.28
2023-02-28T06:45:32.928Z,119.10
2023-02-28T06:47:34.404Z,114.00
2023-02-28T06:49:36.688Z,118.15
2023-02-28T06:51:40.775Z,101.90
2023-02-28T06:53:42.885Z,110.43
2023-02-28T06:55:44.595Z,100.75
2023-02-28T06:57:46.031Z,100.47
2023-02-28T06:59:47.662Z,103.60
2023-02-28T07:01:49.127Z,103.55
2023-02-28T07:03:51.279Z,103.63
2023-02-28T07:05:52.809Z,108.30
2023-02-28T07:07:54.180Z,96.32
2023-02-28T07:09:55.615Z,95.70
2023-02-28T07:11:57.334Z,92.97
2023-02-28T07:13:58.952Z,95.25
2023-02-28T07:16:06.370Z,104.60
2023-02-28T07:18:07.771Z,98.50
2023-02-28T07:20:09.866Z,108.60
2023-02-28T07:22:11.256Z,97.13
2023-02-28T07:24:12.681Z,95.60
2023-02-28T07:26:17.113Z,98.07
2023-02-28T07:28:18.539Z,93.78
2023-02-28T07:30:20.356Z,112.53
2023-02-28T07:32:21.950Z,93.43
2023-02-28T07:34:23.669Z,80.50
2023-02-28T07:36:25.843Z,75.95
2023-02-28T07:38:27.439Z,83.88
2023-02-28T07:40:28.827Z,80.13
2023-02-28T07:42:30.457Z,76.07
2023-02-28T07:44:31.984Z,85.75
2023-02-28T07:46:33.744Z,93.30
2023-02-28T07:48:35.703Z,99.38
2023-02-28T07:50:37.269Z,80.30
2023-02-28T07:52:39.345Z,63.90
2023-02-28T07:54:40.918Z,67.00
2023-02-28T07:56:42.334Z,67.15
2023-02-28T07:58:43.752Z,80.13
2023-02-28T08:00:45.395Z,61.72
2023-02-28T08:02:47.265Z,54.45
2023-02-28T08:04:48.696Z,43.30
2023-02-28T08:06:50.248Z,48.08
2023-02-28T08:08:51.773Z,41.80
2023-02-28T08:10:53.165Z,41.70
2023-02-28T08:12:54.567Z,44.83
2023-02-28T08:14:56.059Z,40.97
2023-02-28T08:16:57.519Z,40.28
2023-02-28T08:18:59.046Z,37.78
2023-02-28T08:21:00.812Z,39.22
2023-02-28T08:23:02.292Z,28.60
2023-02-28T08:25:04.048Z,33.13
2023-02-28T08:27:05.448Z,29.20
2023-02-28T08:29:07.004Z,36.25
2023-02-28T08:31:10.998Z,32.25
2023-02-28T08:33:12.474Z,27.88
2023-02-28T08:35:14.537Z,34.78
2023-02-28T08:37:16.209Z,35.28
2023-02-28T08:39:17.727Z,34.17
2023-02-28T08:41:19.149Z,36.28
2023-02-28T08:43:20.689Z,39.40
2023-02-28T08:45:22.090Z,38.90
2023-02-28T08:47:23.549Z,32.08
2023-02-28T08:49:24.944Z,32.08
2023-02-28T08:51:27.340Z,31.65
2023-02-28T08:53:29.874Z,44.00
2023-02-28T08:55:31.471Z,33.78
2023-02-28T08:57:33.303Z,32.53
2023-02-28T08:59:35.966Z,30.67
2023-02-28T09:01:37.496Z,39.00
2023-02-28T09:03:39.709Z,31.13
2023-02-28T09:05:41.148Z,28.02
2023-02-28T09:07:42.674Z,28.10
2023-02-28T09:09:44.263Z,27.67
2023-02-28T09:11:45.686Z,23.92
2023-02-28T09:13:47.486Z,28.70
2023-02-28T09:15:49.158Z,20.98
2023-02-28T09:17:50.532Z,24.65
2023-02-28T09:19:51.957Z,31.65
2023-02-28T09:21:53.527Z,27.67
2023-02-28T09:23:56.531Z,25.48
2023-02-28T09:25:57.949Z,38.75
2023-02-28T09:27:59.565Z,30.17
2023-02-28T09:30:00.943Z,28.98
2023-02-28T09:32:03.357Z,34.85
2023-02-28T09:34:05.551Z,29.25
2023-02-28T09:36:07.573Z,29.83
2023-02-28T09:38:09.799Z,35.65
2023-02-28T09:40:13.660Z,31.70
2023-02-28T09:42:24.531Z,30.95
2023-02-28T09:44:32.639Z,27.95
2023-02-28T09:46:38.768Z,28.13
2023-02-28T09:48:43.919Z,34.17
2023-02-28T09:51:03.511Z,30.90
2023-02-28T09:53:36.932Z,28.63
2023-02-28T09:55:49.043Z,29.75
2023-02-28T09:57:52.231Z,36.92
2023-02-28T10:00:19.466Z,35.10
2023-02-28T10:02:58.518Z,31.27
2023-02-28T10:05:09.608Z,30.98
2023-02-28T10:07:38.083Z,31.92
2023-02-28T10:09:40.013Z,32.13
2023-02-28T10:11:42.086Z,30.67
2023-02-28T10:14:06.640Z,36.08
2023-02-28T10:16:14.484Z,30.95
2023-02-28T10:18:19.498Z,31.95
2023-02-28T10:20:24.044Z,32.83
2023-02-28T10:22:35.786Z,29.67
2023-02-28T10:24:43.117Z,31.48
2023-02-28T10:26:46.159Z,30.95
2023-02-28T10:28:47.740Z,31.77
2023-02-28T10:30:53.482Z,33.03
2023-02-28T10:32:55.187Z,30.42
2023-02-28T10:35:01.222Z,28.38
2023-02-28T10:37:04.224Z,29.98
2023-02-28T10:39:57.632Z,30.70
2023-02-28T10:41:59.171Z,30.25
2023-02-28T10:44:21.824Z,39.75
2023-02-28T10:46:23.274Z,30.60
2023-02-28T10:48:35.289Z,29.02
2023-02-28T10:50:52.871Z,37.78
2023-02-28T10:52:54.399Z,31.08
2023-02-28T10:55:17.246Z,48.47
2023-02-28T10:57:21.650Z,37.10
2023-02-28T10:59:29.304Z,38.33
2023-02-28T11:02:00.083Z,34.42
2023-02-28T11:04:02.124Z,29.23
2023-02-28T11:06:22.494Z,31.17
2023-02-28T11:08:24.787Z,26.75
2023-02-28T11:10:31.409Z,31.55
2023-02-28T11:12:46.950Z,23.27
2023-02-28T11:14:58.073Z,24.00
2023-02-28T11:17:15.306Z,31.83
2023-02-28T11:19:26.161Z,51.97
2023-02-28T11:21:36.593Z,24.02
2023-02-28T11:23:42.189Z,24.05
2023-02-28T11:25:50.532Z,29.15
2023-02-28T11:27:57.988Z,25.73
2023-02-28T11:30:00.411Z,27.60
2023-02-28T11:32:21.390Z,36.08
2023-02-28T11:34:28.275Z,35.58
2023-02-28T11:36:32.385Z,26.52
2023-02-28T11:38:36.416Z,39.75
2023-02-28T11:40:59.701Z,27.30
2023-02-28T11:43:22.630Z,25.05
2023-02-28T11:45:48.702Z,29.20
2023-02-28T11:48:15.751Z,27.88
2023-02-28T11:50:42.343Z,30.20
2023-02-28T11:52:55.905Z,27.70
2023-02-28T11:55:03.778Z,29.67
2023-02-28T11:57:16.230Z,28.92
2023-02-28T11:59:49.687Z,28.17
2023-02-28T12:01:57.292Z,32.28
2023-02-28T12:04:04.462Z,26.58
2023-02-28T12:06:21.374Z,25.20
2023-02-28T12:08:50.980Z,23.65
2023-02-28T12:11:06.791Z,31.55
2023-02-28T12:13:14.046Z,23.92
2023-02-28T12:15:21.614Z,22.60
2023-02-28T12:17:49.025Z,24.95
2023-02-28T12:19:59.518Z,24.73
2023-02-28T12:22:41.754Z,23.13
2023-02-28T12:24:54.937Z,19.70
2023-02-28T12:27:01.596Z,18.45
2023-02-28T12:29:13.855Z,32.17
2023-02-28T12:31:21.953Z,21.42
2023-02-28T12:33:30.608Z,28.90
2023-02-28T12:35:40.061Z,24.48
2023-02-28T12:37:50.803Z,23.50
2023-02-28T12:40:00.699Z,19.05
2023-02-28T12:42:10.484Z,23.92
2023-02-28T12:44:30.584Z,23.15
2023-02-28T12:46:40.909Z,21.55
2023-02-28T12:48:56.078Z,21.00
2023-02-28T12:50:58.520Z,21.42
2023-02-28T12:53:02.150Z,18.50
2023-02-28T12:57:50.973Z,20.10
2023-02-28T13:00:03.574Z,25.77
2023-02-28T13:02:13.874Z,22.52
2023-02-28T13:04:17.927Z,18.80
2023-02-28T13:06:56.380Z,21.98
2023-02-28T13:09:05.157Z,17.00
2023-02-28T13:11:13.106Z,18.50
2023-02-28T13:13:27.337Z,20.67
2023-02-28T13:15:29.605Z,21.65
2023-02-28T13:17:31.455Z,20.70
2023-02-28T13:19:35.758Z,19.00
2023-02-28T13:21:44.933Z,15.85
2023-02-28T13:23:46.314Z,18.80
2023-02-28T13:25:47.665Z,24.88
2023-02-28T13:27:56.623Z,22.38
2023-02-28T13:29:58.035Z,26.63
2023-02-28T13:32:08.365Z,25.42
2023-02-28T13:34:17.297Z,20.73
2023-02-28T13:36:18.748Z,15.63
2023-02-28T13:38:26.194Z,16.60
2023-02-28T13:40:31.519Z,13.68
2023-02-28T13:42:47.228Z,16.42
2023-02-28T13:45:03.876Z,18.65
2023-02-28T13:47:05.504Z,16.52
2023-02-28T13:49:21.133Z,16.27
2023-02-28T13:51:46.180Z,18.67
2023-02-28T13:54:04.058Z,16.05
2023-02-28T13:56:23.155Z,21.13
2023-02-28T13:58:49.303Z,17.67
2023-02-28T14:01:09.884Z,32.72
2023-02-28T14:03:48.043Z,24.08
2023-02-28T14:06:29.534Z,18.77
2023-02-28T14:08:34.312Z,19.85
2023-02-28T14:10:49.077Z,17.42
2023-02-28T14:12:59.781Z,20.85
2023-02-28T14:15:01.360Z,19.20
2023-02-28T14:17:05.080Z,22.48
2023-02-28T14:19:32.687Z,22.60
2023-02-28T14:21:36.650Z,40.17
2023-02-28T14:24:11.674Z,25.42
2023-02-28T14:26:13.207Z,35.33
2023-02-28T14:28:43.799Z,19.33
2023-02-28T14:31:10.263Z,19.63
2023-02-28T14:33:11.810Z,21.92
2023-02-28T14:35:16.128Z,261.23
2023-02-28T14:37:25.806Z,252.23
2023-02-28T14:39:29.963Z,16.63
2023-02-28T14:41:32.688Z,21.20
2023-02-28T14:43:34.132Z,17.00
2023-02-28T14:45:37.105Z,20.13
2023-02-28T14:47:39.149Z,20.77
2023-02-28T14:49:46.000Z,44.13
2023-02-28T14:51:50.420Z,18.73
2023-02-28T14:53:58.104Z,25.52
2023-02-28T14:55:59.565Z,32.85
2023-02-28T14:58:04.766Z,270.80
2023-02-28T15:00:16.648Z,24.67
2023-02-28T15:02:25.072Z,15.95
2023-02-28T15:04:28.031Z,18.23
2023-02-28T15:06:30.674Z,21.40
2023-02-28T15:08:32.625Z,19.83
2023-02-28T15:10:35.458Z,19.15
2023-02-28T15:12:38.013Z,22.85
2023-02-28T15:14:44.403Z,24.10
2023-02-28T15:16:50.921Z,27.15
2023-02-28T15:18:57.684Z,30.52
2023-02-28T15:21:13.239Z,19.55
2023-02-28T15:23:16.484Z,17.13
2023-02-28T15:25:21.497Z,28.17
2023-02-28T15:27:26.209Z,23.50
2023-02-28T15:29:30.556Z,15.98
2023-02-28T15:31:56.159Z,15.43
2023-02-28T15:34:04.793Z,30.30
2023-02-28T15:36:19.332Z,20.27
2023-02-28T15:38:26.729Z,26.52
2023-02-28T15:40:29.721Z,24.90
2023-02-28T15:42:31.800Z,17.58
2023-02-28T15:44:36.945Z,16.20
2023-02-28T15:46:40.536Z,13.75
2023-02-28T15:48:51.800Z,16.42
2023-02-28T15:51:18.081Z,15.15
2023-02-28T15:53:34.258Z,15.45
2023-02-28T15:55:35.980Z,15.98
2023-02-28T15:57:39.891Z,22.90
2023-02-28T15:59:50.744Z,22.20
2023-02-28T16:02:14.674Z,20.33
2023-02-28T16:04:19.570Z,34.13
2023-02-28T16:06:34.012Z,34.22
2023-02-28T16:08:35.439Z,34.72
2023-02-28T16:10:37.073Z,28.58
2023-02-28T16:12:40.195Z,28.25
2023-02-28T16:14:41.747Z,27.83
2023-02-28T16:16:48.747Z,27.98
2023-02-28T16:18:50.368Z,38.70
2023-02-28T16:20:51.947Z,35.67
2023-02-28T16:22:54.139Z,46.40
2023-02-28T16:24:55.582Z,46.90
2023-02-28T16:26:58.361Z,41.70
2023-02-28T16:28:59.931Z,35.30
2023-02-28T16:31:02.802Z,37.60
2023-02-28T16:33:04.251Z,91.40
2023-02-28T16:35:10.149Z,49.75
2023-02-28T16:37:17.316Z,41.38
2023-02-28T16:39:18.825Z,43.35
2023-02-28T16:41:23.147Z,47.47
2023-02-28T16:43:27.136Z,47.00
2023-02-28T16:45:30.173Z,45.95
2023-02-28T16:47:32.329Z,81.28
2023-02-28T16:49:33.709Z,68.13
2023-02-28T16:51:36.040Z,51.40
2023-02-28T16:53:37.798Z,47.03
2023-02-28T16:55:39.247Z,36.28
2023-02-28T16:57:40.922Z,34.92
2023-02-28T16:59:42.493Z,34.30
2023-02-28T17:01:43.961Z,48.10
2023-02-28T17:03:45.591Z,56.00
2023-02-28T17:05:47.109Z,57.15
2023-02-28T17:07:49.379Z,69.25
2023-02-28T17:09:50.875Z,61.17
2023-02-28T17:11:52.655Z,66.60
2023-02-28T17:13:54.063Z,67.85
2023-02-28T17:15:55.722Z,85.75
2023-02-28T17:17:57.276Z,197.88
2023-02-28T17:19:58.723Z,64.47
2023-02-28T17:22:00.181Z,1133.60
2023-02-28T17:24:01.783Z,856.25
2023-02-28T17:26:03.750Z,367.15
2023-02-28T17:28:05.370Z,370.15
2023-02-28T17:30:18.416Z,215.27
2023-02-28T17:32:19.854Z,151.23
2023-02-28T17:34:21.285Z,113.53
2023-02-28T17:36:25.501Z,148.18
2023-02-28T17:38:26.933Z,135.80
2023-02-28T17:40:28.376Z,140.48
2023-02-28T17:42:29.937Z,133.35
2023-02-28T17:44:31.452Z,75.00
2023-02-28T17:46:35.374Z,77.90
2023-02-28T17:48:36.835Z,160.65
2023-02-28T17:50:38.219Z,459.55
2023-02-28T17:52:39.784Z,218.05
2023-02-28T17:54:41.250Z,692.17
2023-02-28T17:56:42.943Z,140.45
2023-02-28T17:58:44.398Z,439.50
2023-02-28T18:00:46.230Z,403.05
2023-02-28T18:02:47.688Z,346.10
2023-02-28T18:04:49.391Z,345.10
2023-02-28T18:06:51.200Z,220.00
2023-02-28T18:08:53.004Z,196.45
2023-02-28T18:10:54.584Z,369.27
2023-02-28T18:12:56.060Z,466.17
2023-02-28T18:14:57.539Z,466.10
2023-02-28T18:16:59.212Z,265.85
2023-02-28T18:19:01.029Z,233.55
2023-02-28T18:21:05.204Z,187.20
2023-02-28T18:23:06.597Z,171.38
2023-02-28T18:25:09.853Z,157.27
2023-02-28T18:27:11.419Z,179.82
2023-02-28T18:29:18.838Z,333.23
2023-02-28T18:31:20.713Z,213.15
2023-02-28T18:33:22.379Z,176.63
2023-02-28T18:35:25.030Z,180.80
2023-02-28T18:37:26.462Z,160.77
2023-02-28T18:39:28.289Z,106.63
2023-02-28T18:41:30.029Z,128.98
2023-02-28T18:43:33.622Z,162.02
2023-02-28T18:47:37.370Z,535.42
2023-02-28T18:49:38.792Z,353.20
2023-02-28T18:51:40.422Z,324.77
2023-02-28T18:53:42.719Z,474.13
2023-02-28T18:55:44.744Z,487.23
2023-02-28T18:57:50.218Z,456.42
2023-02-28T18:59:51.876Z,495.25
2023-02-28T19:01:53.288Z,507.08
2023-02-28T19:03:54.888Z,470.30
2023-02-28T19:05:58.318Z,496.58
2023-02-28T19:08:01.223Z,448.50
2023-02-28T19:10:02.887Z,563.00
2023-02-28T19:12:04.698Z,569.15
2023-02-28T19:14:06.226Z,519.08
2023-02-28T19:16:09.831Z,600.22
2023-02-28T19:20:13.191Z,865.28
2023-02-28T19:22:14.652Z,828.00
2023-02-28T19:24:16.142Z,762.38
2023-02-28T19:26:20.576Z,806.33
2023-02-28T19:28:22.410Z,660.20
2023-02-28T19:30:23.892Z,489.27
2023-02-28T19:32:26.401Z,500.05
2023-02-28T19:34:27.992Z,511.67
2023-02-28T19:36:29.368Z,408.63
2023-02-28T19:38:30.770Z,388.20
2023-02-28T19:40:32.365Z,567.17
2023-02-28T19:42:33.847Z,563.90
2023-02-28T19:44:35.242Z,599.67
2023-02-28T19:46:36.652Z,618.53
2023-02-28T19:48:38.626Z,611.47
2023-02-28T19:50:40.016Z,635.97
2023-02-28T19:54:48.259Z,598.03
2023-02-28T19:56:49.704Z,583.67
2023-02-28T19:58:51.126Z,550.47
2023-02-28T20:00:52.819Z,540.13
2023-02-28T20:02:54.243Z,567.58
2023-02-28T20:04:55.800Z,559.58
2023-02-28T20:06:57.497Z,563.78
2023-02-28T20:08:58.999Z,501.90
2023-02-28T20:11:05.393Z,500.60
2023-02-28T20:13:07.080Z,499.98
2023-02-28T20:15:08.967Z,487.73
2023-02-28T20:17:10.486Z,489.25
2023-02-28T20:19:12.342Z,434.45
2023-02-28T20:21:14.225Z,406.25
2023-02-28T20:23:15.628Z,360.40
2023-02-28T20:25:17.221Z,331.90
2023-02-28T20:27:18.651Z,287.45
2023-02-28T20:29:20.070Z,242.52
2023-02-28T20:31:24.925Z,202.45
2023-02-28T20:33:26.376Z,145.13
2023-02-28T20:35:27.942Z,177.07
2023-02-28T20:37:29.755Z,1388.32
2023-02-28T20:39:31.143Z,446.80
2023-02-28T20:41:32.757Z,332.55
2023-02-28T20:43:34.370Z,115.82
2023-02-28T20:45:35.844Z,168.25
2023-02-28T20:47:37.359Z,319.83
2023-02-28T20:49:38.958Z,353.95
2023-02-28T20:51:40.351Z,160.98
2023-02-28T20:53:42.328Z,288.98
2023-02-28T20:55:56.571Z,238.95
2023-02-28T20:57:58.038Z,287.20
2023-02-28T20:59:59.437Z,210.68
2023-02-28T21:02:00.846Z,179.55
2023-02-28T21:04:04.751Z,163.00
2023-02-28T21:06:06.746Z,171.52
2023-02-28T21:08:08.237Z,156.57
2023-02-28T21:10:10.369Z,149.68
2023-02-28T21:12:11.758Z,145.45
2023-02-28T21:14:16.137Z,165.27
2023-02-28T21:16:19.121Z,242.50
2023-02-28T21:18:20.506Z,242.38
2023-02-28T21:20:21.909Z,259.05
2023-02-28T21:22:23.337Z,120.97
2023-02-28T21:24:24.716Z,106.60
2023-02-28T21:26:26.677Z,111.40
2023-02-28T21:28:28.149Z,95.10
2023-02-28T21:30:30.348Z,127.38
2023-02-28T21:32:31.763Z,125.85
2023-02-28T21:34:33.338Z,122.45
2023-02-28T21:36:40.677Z,118.30
2023-02-28T21:38:43.680Z,116.55
2023-02-28T21:40:45.239Z,80.53
2023-02-28T21:42:46.625Z,67.30
2023-02-28T21:44:48.034Z,114.88
2023-02-28T21:46:52.090Z,108.82
2023-02-28T21:48:54.870Z,89.55
2023-02-28T21:51:01.562Z,102.55
2023-02-28T21:53:03.053Z,117.60
2023-02-28T21:55:04.838Z,109.57
2023-02-28T21:57:06.445Z,111.50
2023-02-28T21:59:08.219Z,102.38
2023-02-28T22:01:13.270Z,102.07
2023-02-28T22:03:14.673Z,106.63
2023-02-28T22:05:16.271Z,98.47
2023-02-28T22:07:17.772Z,99.75
2023-02-28T22:09:19.469Z,70.65
2023-02-28T22:11:22.545Z,74.75
2023-02-28T22:13:23.983Z,68.05
2023-02-28T22:15:25.383Z,66.03
2023-02-28T22:17:26.879Z,73.82
2023-02-28T22:19:29.370Z,70.90
2023-02-28T22:21:31.154Z,75.03
2023-02-28T22:23:33.123Z,77.75
2023-02-28T22:25:37.553Z,72.25
2023-02-28T22:27:39.015Z,66.47
2023-02-28T22:29:40.449Z,66.40
2023-02-28T22:31:41.900Z,67.45
2023-02-28T22:33:45.075Z,68.65
2023-02-28T22:35:46.499Z,85.07
2023-02-28T22:37:48.242Z,71.28
2023-02-28T22:39:49.857Z,85.30
2023-02-28T22:41:54.719Z,206.32
2023-02-28T22:43:59.903Z,253.13
2023-02-28T22:46:07.304Z,235.55
2023-02-28T22:48:09.584Z,109.45
2023-02-28T22:50:11.661Z,99.65
2023-02-28T22:52:13.187Z,105.57
2023-02-28T22:54:14.856Z,105.25
2023-02-28T22:56:18.398Z,89.70
2023-02-28T23:00:21.681Z,88.03
2023-02-28T23:02:23.066Z,95.20
2023-02-28T23:04:24.581Z,92.95
2023-02-28T23:06:34.836Z,92.07
2023-02-28T23:08:36.314Z,107.13
2023-02-28T23:10:41.831Z,115.15
2023-02-28T23:12:44.754Z,113.47
2023-02-28T23:14:46.180Z,129.98
2023-02-28T23:16:54.654Z,153.77
2023-02-28T23:18:57.196Z,168.05
2023-02-28T23:20:58.699Z,195.77
2023-02-28T23:23:00.231Z,233.15
2023-02-28T23:25:01.811Z,438.80
2023-02-28T23:27:05.816Z,423.10
2023-02-28T23:29:07.767Z,283.33
2023-02-28T23:31:09.325Z,383.25
2023-02-28T23:33:10.769Z,283.80
2023-02-28T23:35:12.475Z,305.60
2023-02-28T23:37:14.064Z,334.73
2023-02-28T23:39:17.380Z,300.92
2023-02-28T23:41:20.762Z,253.68
2023-02-28T23:43:22.395Z,263.10
2023-02-28T23:45:23.787Z,288.88
2023-02-28T23:47:25.457Z,258.83
2023-02-28T23:49:26.964Z,242.32
2023-02-28T23:51:28.624Z,282.15
2023-02-28T23:53:31.276Z,330.33
2023-02-28T23:55:32.862Z,226.87
2023-02-28T23:57:34.759Z,226.55
2023-02-28T23:59:36.361Z,217.02
